CST,Max TemperatureF,Mean TemperatureF,Min TemperatureF,Max Dew PointF,MeanDew PointF,Min DewpointF,Max Humidity, Mean Humidity, Min Humidity, Max Sea Level PressureIn, Mean Sea Level PressureIn, Min Sea Level PressureIn, Max VisibilityMiles, Mean VisibilityMiles, Min VisibilityMiles, Max Wind SpeedMPH, Mean Wind SpeedMPH, Max Gust SpeedMPH,PrecipitationIn, CloudCover, Events, WindDirDegrees
2014-2-1,15,5,-5,,,,,,,30.08,30.00,29.92,10,9,2,6,2,,0.00,4,,284
2014-2-2,17,8,0,,,,,,,30.24,30.16,30.04,10,10,9,10,3,,0.00,0,,272
2014-2-3,17,3,-11,,,,,,,30.29,30.25,30.22,10,10,10,15,5,18,0.00,0,,232
2014-2-4,21,10,0,,,,,,,30.42,30.34,30.28,10,10,7,14,4,17,0.00,1,,11
2014-2-5,15,8,1,,,,,,,30.36,30.31,30.27,10,10,10,17,10,23,0.00,6,,11
2014-2-6,10,4,-2,,,,,,,30.32,30.20,30.12,10,10,10,13,5,22,0.00,2,,269
2014-2-7,14,4,-5,,,,,,,30.17,30.10,30.04,10,10,8,18,9,26,0.00,0,,252
2014-2-8,15,6,-4,,,,,,,30.19,30.14,30.08,10,10,10,10,5,,0.00,0,,240
2014-2-9,19,8,-2,,,,,,,30.22,30.09,30.04,10,10,10,12,3,16,0.00,5,,331
2014-2-10,10,2,-7,0,-14,-29,100,53,27,30.42,30.31,30.23,10,10,8,12,4,,0.00,0,,326
2014-2-11,10,-4,-18,1,-12,-29,100,60,28,30.46,30.37,30.23,10,10,9,14,3,20,0.00,0,,209
2014-2-12,17,11,5,9,4,-4,100,80,61,30.23,30.09,29.96,10,8,1,16,11,23,0.00,4,,233
2014-2-13,24,14,3,25,16,1,100,94,80,29.96,29.65,29.45,8,4,0,16,4,22,0.01,6,,197
2014-2-14,23,12,0,19,7,-4,100,75,54,29.94,29.70,29.46,10,10,3,16,9,24,0.01,2,,340
2014-2-15,12,4,-5,12,1,-8,100,83,62,30.04,29.98,29.93,10,8,1,9,3,,0.00,4,,301
2014-2-16,15,8,0,12,6,-8,100,85,66,30.30,30.16,29.94,10,8,0,15,7,21,0.00,3,,40
2014-2-17,23,10,-2,21,15,-4,100,93,74,30.27,29.96,29.74,10,6,0,18,7,29,0.01,7,,138
2014-2-18,32,16,1,28,17,-2,100,92,78,29.80,29.68,29.56,10,6,0,16,4,21,0.00,2,,216
2014-2-19,42,30,17,25,21,16,100,71,39,29.88,29.75,29.59,10,8,0,15,4,22,0.04,0,,244
2014-2-20,37,29,21,37,29,18,100,87,69,29.89,29.58,28.95,10,7,2,34,9,58,0.35,6,,116
2014-2-21,35,25,15,36,17,7,100,75,58,29.54,29.21,28.90,10,8,1,26,19,39,0.01,8,,247
2014-2-22,24,17,10,9,5,3,79,64,46,29.92,29.74,29.54,10,10,10,16,11,29,0.00,1,,270
2014-2-23,21,12,3,5,2,-2,85,61,42,30.02,29.97,29.92,10,10,9,16,8,24,0.00,2,,271
2014-2-24,17,8,-2,3,0,-11,92,64,45,30.16,30.10,30.03,10,10,9,15,6,21,0.00,2,,298
2014-2-25,12,5,-2,0,-5,-11,100,61,41,30.14,30.08,30.01,10,10,10,15,5,21,0.00,1,,301
2014-2-26,10,2,-7,1,-9,-15,85,64,37,30.09,29.77,29.48,10,10,10,21,7,33,0.00,2,,260
2014-2-27,5,-4,-14,1,-15,-20,100,52,33,30.16,29.96,29.54,10,9,0,17,10,31,0.00,1,,340
2014-2-28,15,-2,-18,14,-4,-26,100,83,55,30.16,30.06,29.95,10,8,0,12,3,17,0.00,5,,220